createdAt,value
2023-05-22T00:02:04.777Z,9.90
2023-05-22T00:04:32.029Z,8.90
2023-05-22T00:06:58.610Z,9.65
2023-05-22T00:09:26.202Z,9.50
2023-05-22T00:11:52.844Z,9.52
2023-05-22T00:14:19.330Z,9.40
2023-05-22T00:16:48.417Z,9.40
2023-05-22T00:19:16.802Z,9.27
2023-05-22T00:21:44.212Z,9.52
2023-05-22T00:24:10.933Z,9.77
2023-05-22T00:26:37.711Z,9.38
2023-05-22T00:29:05.972Z,9.02
2023-05-22T00:31:32.673Z,9.60
2023-05-22T00:33:59.604Z,9.85
2023-05-22T00:36:26.209Z,10.32
2023-05-22T00:38:52.694Z,9.32
2023-05-22T00:41:19.387Z,10.63
2023-05-22T00:43:46.052Z,10.77
2023-05-22T00:46:14.535Z,9.45
2023-05-22T00:48:41.177Z,9.88
2023-05-22T00:51:08.575Z,9.43
2023-05-22T00:53:35.342Z,9.98
2023-05-22T00:56:01.863Z,8.98
2023-05-22T00:58:28.469Z,9.68
2023-05-22T01:00:56.053Z,9.02
2023-05-22T01:03:26.856Z,8.95
2023-05-22T01:05:55.152Z,8.30
2023-05-22T01:08:22.190Z,9.15
2023-05-22T01:10:53.708Z,9.02
2023-05-22T01:13:42.062Z,9.07
2023-05-22T01:16:19.013Z,9.20
2023-05-22T01:19:04.249Z,8.70
2023-05-22T01:21:39.181Z,9.43
2023-05-22T01:24:25.837Z,8.88
2023-05-22T01:27:10.658Z,9.43
2023-05-22T01:29:58.873Z,8.90
2023-05-22T01:32:27.033Z,8.93
2023-05-22T01:34:56.295Z,9.07
2023-05-22T01:37:23.768Z,8.85
2023-05-22T01:39:52.189Z,9.18
2023-05-22T01:42:19.246Z,9.30
2023-05-22T01:44:46.121Z,8.95
2023-05-22T01:47:12.677Z,8.50
2023-05-22T01:49:42.987Z,9.00
2023-05-22T01:52:38.782Z,8.63
2023-05-22T01:55:17.544Z,8.57
2023-05-22T01:57:52.366Z,9.23
2023-05-22T02:00:22.350Z,8.50
2023-05-22T02:03:17.067Z,8.63
2023-05-22T02:05:45.502Z,8.25
2023-05-22T02:08:14.352Z,8.15
2023-05-22T02:10:42.236Z,8.32
2023-05-22T02:13:08.882Z,7.88
2023-05-22T02:15:35.560Z,7.82
2023-05-22T02:18:02.196Z,7.65
2023-05-22T02:20:29.593Z,7.78
2023-05-22T02:22:56.047Z,8.10
2023-05-22T02:25:22.526Z,8.63
2023-05-22T02:27:49.847Z,8.40
2023-05-22T02:30:16.538Z,8.80
2023-05-22T02:32:43.076Z,8.60
2023-05-22T02:35:09.983Z,8.40
2023-05-22T02:37:37.301Z,8.30
2023-05-22T02:40:07.323Z,8.40
2023-05-22T02:42:34.534Z,8.43
2023-05-22T02:45:01.207Z,8.80
2023-05-22T02:47:27.789Z,8.63
2023-05-22T02:49:54.388Z,8.23
2023-05-22T02:52:22.561Z,8.13
2023-05-22T02:54:48.986Z,8.38
2023-05-22T02:57:15.466Z,8.32
2023-05-22T02:59:41.930Z,8.05
2023-05-22T03:02:08.540Z,8.80
2023-05-22T03:04:38.420Z,9.00
2023-05-22T03:07:07.270Z,8.13
2023-05-22T03:09:33.730Z,8.30
2023-05-22T03:12:00.834Z,8.02
2023-05-22T03:14:29.108Z,8.75
2023-05-22T03:16:55.709Z,8.55
2023-05-22T03:19:22.887Z,8.65
2023-05-22T03:21:50.198Z,8.05
2023-05-22T03:24:17.002Z,7.93
2023-05-22T03:26:44.035Z,8.43
2023-05-22T03:29:10.852Z,7.95
2023-05-22T03:31:37.452Z,7.82
2023-05-22T03:34:05.811Z,8.05
2023-05-22T03:36:34.223Z,7.80
2023-05-22T03:39:01.232Z,8.18
2023-05-22T03:41:27.800Z,7.97
2023-05-22T03:43:54.334Z,7.88
2023-05-22T03:46:20.933Z,7.15
2023-05-22T03:48:47.416Z,8.27
2023-05-22T03:51:14.067Z,7.07
2023-05-22T03:53:40.512Z,6.95
2023-05-22T03:56:07.255Z,6.75
2023-05-22T03:58:33.713Z,7.25
2023-05-22T04:01:01.171Z,6.65
2023-05-22T04:03:28.385Z,6.75
2023-05-22T04:05:55.028Z,6.78
2023-05-22T04:08:21.454Z,6.78
2023-05-22T04:10:48.554Z,6.82
2023-05-22T04:13:16.869Z,7.15
2023-05-22T04:15:46.823Z,6.75
2023-05-22T04:18:14.643Z,6.57
2023-05-22T04:20:42.746Z,6.35
2023-05-22T04:23:09.676Z,6.53
2023-05-22T04:25:36.557Z,6.32
2023-05-22T04:28:04.061Z,6.00
2023-05-22T04:30:37.719Z,6.43
2023-05-22T04:33:06.414Z,6.22
2023-05-22T04:35:34.277Z,6.60
2023-05-22T04:38:03.769Z,5.93
2023-05-22T04:40:33.886Z,6.30
2023-05-22T04:43:01.580Z,6.45
2023-05-22T04:45:28.650Z,6.25
2023-05-22T04:47:55.928Z,6.03
2023-05-22T04:50:23.856Z,6.30
2023-05-22T04:52:50.474Z,7.00
2023-05-22T04:55:17.245Z,6.32
2023-05-22T04:57:47.391Z,6.00
2023-05-22T05:00:16.621Z,6.53
2023-05-22T05:02:43.280Z,6.53
2023-05-22T05:05:09.861Z,6.47
2023-05-22T05:07:40.098Z,6.25
2023-05-22T05:10:09.290Z,6.70
2023-05-22T05:12:35.891Z,6.13
2023-05-22T05:15:02.386Z,5.93
2023-05-22T05:17:29.073Z,6.43
2023-05-22T05:19:55.880Z,6.07
2023-05-22T05:22:24.520Z,5.75
2023-05-22T05:24:51.042Z,6.03
2023-05-22T05:27:19.658Z,6.15
2023-05-22T05:29:46.723Z,5.95
2023-05-22T05:32:13.924Z,5.97
2023-05-22T05:34:40.554Z,5.95
2023-05-22T05:37:07.031Z,5.57
2023-05-22T05:39:33.907Z,6.18
2023-05-22T05:42:00.538Z,5.90
2023-05-22T05:44:27.284Z,6.00
2023-05-22T05:46:54.073Z,6.20
2023-05-22T05:49:22.353Z,5.72
2023-05-22T05:51:48.830Z,5.72
2023-05-22T05:54:15.346Z,6.25
2023-05-22T05:56:41.944Z,5.88
2023-05-22T05:59:09.787Z,6.13
2023-05-22T06:01:38.545Z,5.85
2023-05-22T06:04:05.502Z,6.13
2023-05-22T06:06:36.629Z,6.10
2023-05-22T06:09:06.161Z,6.28
2023-05-22T06:11:33.363Z,5.93
2023-05-22T06:14:02.875Z,5.72
2023-05-22T06:16:29.945Z,5.70
2023-05-22T06:18:58.732Z,6.18
2023-05-22T06:21:25.522Z,5.78
2023-05-22T06:23:52.330Z,5.40
2023-05-22T06:26:18.924Z,6.20
2023-05-22T06:28:45.815Z,6.05
2023-05-22T06:31:12.300Z,6.18
2023-05-22T06:33:40.772Z,5.45
2023-05-22T06:36:08.894Z,6.07
2023-05-22T06:38:35.461Z,6.03
2023-05-22T06:41:02.056Z,6.20
2023-05-22T06:43:28.524Z,6.00
2023-05-22T06:45:55.055Z,6.25
2023-05-22T06:48:21.728Z,6.00
2023-05-22T06:50:49.295Z,5.97
2023-05-22T06:53:15.718Z,5.97
2023-05-22T06:55:42.532Z,6.20
2023-05-22T06:58:08.969Z,6.32
2023-05-22T07:00:35.556Z,5.88
2023-05-22T07:03:03.306Z,6.20
2023-05-22T07:05:29.854Z,5.80
2023-05-22T07:07:56.769Z,5.90
2023-05-22T07:10:25.016Z,6.38
2023-05-22T07:12:51.480Z,6.18
2023-05-22T07:15:26.310Z,6.03
2023-05-22T07:17:53.002Z,6.40
2023-05-22T07:20:19.645Z,6.20
2023-05-22T07:22:46.189Z,6.25
2023-05-22T07:25:12.654Z,6.65
2023-05-22T07:27:39.189Z,6.30
2023-05-22T07:30:06.557Z,6.82
2023-05-22T07:32:35.107Z,6.50
2023-05-22T07:35:01.724Z,6.35
2023-05-22T07:37:28.284Z,6.43
2023-05-22T07:39:54.884Z,6.32
2023-05-22T07:42:21.788Z,6.43
2023-05-22T07:44:48.237Z,6.68
2023-05-22T07:47:14.921Z,6.80
2023-05-22T07:49:42.911Z,7.30
2023-05-22T07:52:09.412Z,6.97
2023-05-22T07:54:35.883Z,7.22
2023-05-22T07:57:03.527Z,6.35
2023-05-22T07:59:30.176Z,7.65
2023-05-22T08:01:58.376Z,7.18
2023-05-22T08:04:26.150Z,6.82
2023-05-22T08:06:53.022Z,6.70
2023-05-22T08:09:21.285Z,6.60
2023-05-22T08:11:47.797Z,6.47
2023-05-22T08:14:14.426Z,6.93
2023-05-22T08:16:41.069Z,6.13
2023-05-22T08:19:08.022Z,6.18
2023-05-22T08:21:35.805Z,7.07
2023-05-22T08:24:02.348Z,7.20
2023-05-22T08:26:30.120Z,6.78
2023-05-22T08:28:58.534Z,6.57
2023-05-22T08:31:25.102Z,6.72
2023-05-22T08:33:51.560Z,6.80
2023-05-22T08:36:18.054Z,7.03
2023-05-22T08:38:44.493Z,7.47
2023-05-22T08:41:11.823Z,6.95
2023-05-22T08:43:38.348Z,7.72
2023-05-22T08:46:09.058Z,7.80
2023-05-22T08:48:35.627Z,7.45
2023-05-22T08:51:05.998Z,7.15
2023-05-22T08:53:37.027Z,7.68
2023-05-22T08:56:05.571Z,7.20
2023-05-22T08:58:34.740Z,7.55
2023-05-22T09:01:02.159Z,8.13
2023-05-22T09:03:35.385Z,8.60
2023-05-22T09:06:03.298Z,7.18
2023-05-22T09:08:29.830Z,7.55
2023-05-22T09:10:59.849Z,7.63
2023-05-22T09:15:58.950Z,7.70
2023-05-22T09:18:29.691Z,7.50
2023-05-22T09:21:00.324Z,7.18
2023-05-22T09:23:28.178Z,7.25
2023-05-22T09:25:59.332Z,7.40
2023-05-22T09:28:25.985Z,6.75
2023-05-22T09:30:54.298Z,7.38
2023-05-22T09:33:23.209Z,6.75
2023-05-22T09:35:52.290Z,7.22
2023-05-22T09:38:19.409Z,6.85
2023-05-22T09:40:46.041Z,7.38
2023-05-22T09:43:17.886Z,6.97
2023-05-22T09:45:44.616Z,6.07
2023-05-22T09:48:12.611Z,7.15
2023-05-22T09:50:42.953Z,7.55
2023-05-22T09:53:10.290Z,7.13
2023-05-22T09:55:37.029Z,6.93
2023-05-22T09:58:05.400Z,6.80
2023-05-22T10:00:34.326Z,7.00
2023-05-22T10:03:15.855Z,7.72
2023-05-22T10:05:50.355Z,7.60
2023-05-22T10:08:24.620Z,7.80
2023-05-22T10:10:55.022Z,6.90
2023-05-22T10:13:22.027Z,7.68
2023-05-22T10:15:49.784Z,6.93
2023-05-22T10:18:17.500Z,7.03
2023-05-22T10:20:46.887Z,7.32
2023-05-22T10:23:15.466Z,6.30
2023-05-22T10:25:42.341Z,6.50
2023-05-22T10:28:29.498Z,6.75
2023-05-22T10:31:09.308Z,6.97
2023-05-22T10:33:47.700Z,6.28
2023-05-22T10:36:36.848Z,6.32
2023-05-22T10:39:04.708Z,6.40
2023-05-22T10:41:31.524Z,5.80
2023-05-22T10:43:59.211Z,5.88
2023-05-22T10:46:25.856Z,6.00
2023-05-22T10:48:54.101Z,5.93
2023-05-22T10:51:22.214Z,5.40
2023-05-22T10:53:53.423Z,6.22
2023-05-22T10:56:20.413Z,5.75
2023-05-22T10:58:57.019Z,6.30
2023-05-22T11:01:26.267Z,6.45
2023-05-22T11:04:15.749Z,6.25
2023-05-22T11:07:05.399Z,6.30
2023-05-22T11:09:47.776Z,5.30
2023-05-22T11:12:24.683Z,5.80
2023-05-22T11:14:55.297Z,6.35
2023-05-22T11:17:32.474Z,5.95
2023-05-22T11:20:01.646Z,5.85
2023-05-22T11:22:33.603Z,6.38
2023-05-22T11:25:00.407Z,5.65
2023-05-22T11:27:27.446Z,5.88
2023-05-22T11:29:54.784Z,5.95
2023-05-22T11:32:23.619Z,6.30
2023-05-22T11:34:50.719Z,5.43
2023-05-22T11:37:20.847Z,5.63
2023-05-22T11:39:52.253Z,5.45
2023-05-22T11:42:25.227Z,5.85
2023-05-22T11:44:51.972Z,5.90
2023-05-22T11:47:18.523Z,5.82
2023-05-22T11:49:45.135Z,6.60
2023-05-22T11:52:11.676Z,6.13
2023-05-22T11:54:39.047Z,6.05
2023-05-22T11:57:08.010Z,6.32
2023-05-22T11:59:34.721Z,5.38
2023-05-22T12:02:04.794Z,5.50
2023-05-22T12:04:33.033Z,5.60
2023-05-22T12:06:59.942Z,5.80
2023-05-22T12:09:27.631Z,5.28
2023-05-22T12:12:00.699Z,5.50
2023-05-22T12:14:31.475Z,5.68
2023-05-22T12:16:58.977Z,5.03
2023-05-22T12:19:26.816Z,5.22
2023-05-22T12:21:54.146Z,5.97
2023-05-22T12:24:23.624Z,5.82
2023-05-22T12:26:55.704Z,6.32
2023-05-22T12:29:23.338Z,6.55
2023-05-22T12:31:50.518Z,5.60
2023-05-22T12:34:18.713Z,6.45
2023-05-22T12:36:46.819Z,6.00
2023-05-22T12:39:17.696Z,5.90
2023-05-22T12:41:45.445Z,5.75
2023-05-22T12:44:12.427Z,6.28
2023-05-22T12:46:41.830Z,6.25
2023-05-22T12:49:08.854Z,5.90
2023-05-22T12:51:35.537Z,5.75
2023-05-22T12:54:02.894Z,5.97
2023-05-22T12:56:31.644Z,5.53
2023-05-22T12:58:58.608Z,5.72
2023-05-22T13:01:26.272Z,6.13
2023-05-22T13:03:53.134Z,5.85
2023-05-22T13:06:20.444Z,6.70
2023-05-22T13:08:48.962Z,5.80
2023-05-22T13:11:15.687Z,5.50
2023-05-22T13:13:42.232Z,5.55
2023-05-22T13:16:09.648Z,6.82
2023-05-22T13:18:36.153Z,7.07
2023-05-22T13:21:02.668Z,6.95
2023-05-22T13:23:29.168Z,7.13
2023-05-22T13:25:55.705Z,6.32
2023-05-22T13:28:22.647Z,6.85
2023-05-22T13:30:49.138Z,6.47
2023-05-22T13:33:15.687Z,5.65
2023-05-22T13:35:42.335Z,6.05
2023-05-22T13:38:11.048Z,6.43
2023-05-22T13:40:37.508Z,6.32
2023-05-22T13:43:04.168Z,5.90
2023-05-22T13:45:31.236Z,6.47
2023-05-22T13:47:58.025Z,6.55
2023-05-22T13:50:24.711Z,6.07
2023-05-22T13:52:52.136Z,6.18
2023-05-22T13:55:18.592Z,5.90
2023-05-22T13:57:45.040Z,6.20
2023-05-22T14:00:12.920Z,6.03
2023-05-22T14:02:39.516Z,5.78
2023-05-22T14:05:07.348Z,6.07
2023-05-22T14:07:33.920Z,6.57
2023-05-22T14:10:01.676Z,6.03
2023-05-22T14:12:28.397Z,5.95
2023-05-22T14:14:54.885Z,5.90
2023-05-22T14:17:21.471Z,5.78
2023-05-22T14:19:47.923Z,5.75
2023-05-22T14:22:14.356Z,6.40
2023-05-22T14:24:40.953Z,5.78
2023-05-22T14:27:07.409Z,6.10
2023-05-22T14:29:33.873Z,5.50
2023-05-22T14:32:05.246Z,5.68
2023-05-22T14:34:31.874Z,5.45
2023-05-22T14:37:00.409Z,6.20
2023-05-22T14:39:26.892Z,5.50
2023-05-22T14:41:54.128Z,5.85
2023-05-22T14:44:22.578Z,5.75
2023-05-22T14:46:51.038Z,6.38
2023-05-22T14:49:17.730Z,6.22
2023-05-22T14:51:48.235Z,6.13
2023-05-22T14:54:17.640Z,6.10
2023-05-22T14:56:46.572Z,6.47
2023-05-22T14:59:13.477Z,6.20
2023-05-22T15:01:40.142Z,6.38
2023-05-22T15:04:10.023Z,6.90
2023-05-22T15:06:36.590Z,6.22
2023-05-22T15:09:03.557Z,6.45
2023-05-22T15:11:30.044Z,6.38
2023-05-22T15:13:57.632Z,6.47
2023-05-22T15:16:25.740Z,6.50
2023-05-22T15:18:52.371Z,6.38
2023-05-22T15:21:19.010Z,6.88
2023-05-22T15:23:45.551Z,5.68
2023-05-22T15:26:11.973Z,5.65
2023-05-22T15:28:38.436Z,5.95
2023-05-22T15:31:04.890Z,6.53
2023-05-22T15:33:31.415Z,6.40
2023-05-22T15:35:58.082Z,6.38
2023-05-22T15:38:24.586Z,6.18
2023-05-22T15:40:51.150Z,5.35
2023-05-22T15:43:17.649Z,4.85
2023-05-22T15:45:48.544Z,4.70
2023-05-22T15:48:17.224Z,4.68
2023-05-22T15:50:44.000Z,3.90
2023-05-22T15:53:10.696Z,4.53
2023-05-22T15:55:37.342Z,4.18
2023-05-22T15:58:06.216Z,4.10
2023-05-22T16:00:38.524Z,4.80
2023-05-22T16:03:08.248Z,4.70
2023-05-22T16:05:36.709Z,4.70
2023-05-22T16:08:03.167Z,4.43
2023-05-22T16:10:29.632Z,4.90
2023-05-22T16:12:56.265Z,5.53
2023-05-22T16:15:22.753Z,5.57
2023-05-22T16:17:49.187Z,6.00
2023-05-22T16:20:15.999Z,6.00
2023-05-22T16:22:48.775Z,5.50
2023-05-22T16:25:16.884Z,5.68
2023-05-22T16:27:43.603Z,6.10
2023-05-22T16:30:11.414Z,5.72
2023-05-22T16:32:38.273Z,6.03
2023-05-22T16:35:05.281Z,5.90
2023-05-22T16:37:32.984Z,6.10
2023-05-22T16:39:59.778Z,5.82
2023-05-22T16:42:26.225Z,5.63
2023-05-22T16:44:52.749Z,6.10
2023-05-22T16:47:21.431Z,6.40
2023-05-22T16:49:49.862Z,5.82
2023-05-22T16:52:18.061Z,6.28
2023-05-22T16:54:44.525Z,6.10
2023-05-22T16:57:11.118Z,6.20
2023-05-22T16:59:37.659Z,5.80
2023-05-22T17:02:04.561Z,5.72
2023-05-22T17:04:35.144Z,6.05
2023-05-22T17:07:01.621Z,5.43
2023-05-22T17:09:28.166Z,5.70
2023-05-22T17:11:54.740Z,5.43
2023-05-22T17:14:26.361Z,5.80
2023-05-22T17:16:54.325Z,6.00
2023-05-22T17:19:21.497Z,5.88
2023-05-22T17:21:48.055Z,6.15
2023-05-22T17:24:14.988Z,5.40
2023-05-22T17:26:41.670Z,5.63
2023-05-22T17:29:08.920Z,5.68
2023-05-22T17:31:38.267Z,5.78
2023-05-22T17:36:32.585Z,5.75
2023-05-22T17:38:59.530Z,5.53
2023-05-22T17:41:26.390Z,5.32
2023-05-22T17:43:55.904Z,4.72
2023-05-22T17:46:22.911Z,5.28
2023-05-22T17:48:49.474Z,4.80
2023-05-22T17:51:16.018Z,4.63
2023-05-22T17:53:42.476Z,5.13
2023-05-22T17:56:09.023Z,4.80
2023-05-22T17:58:35.564Z,4.60
2023-05-22T18:01:02.239Z,5.00
2023-05-22T18:03:29.017Z,4.88
2023-05-22T18:05:55.652Z,5.00
2023-05-22T18:08:22.264Z,5.10
2023-05-22T18:10:49.102Z,4.80
2023-05-22T18:13:15.600Z,4.75
2023-05-22T18:15:42.163Z,4.60
2023-05-22T18:18:10.651Z,5.00
2023-05-22T18:20:38.830Z,4.45
2023-05-22T18:23:05.715Z,4.78
2023-05-22T18:25:32.353Z,4.82
2023-05-22T18:27:58.825Z,4.70
2023-05-22T18:30:25.373Z,5.13
2023-05-22T18:32:52.079Z,4.53
2023-05-22T18:35:18.686Z,4.65
2023-05-22T18:37:45.272Z,5.10
2023-05-22T18:40:12.506Z,4.93
2023-05-22T18:42:38.995Z,4.82
2023-05-22T18:45:06.986Z,4.38
2023-05-22T18:47:33.618Z,4.20
2023-05-22T18:50:00.189Z,4.63
2023-05-22T18:52:26.910Z,4.07
2023-05-22T18:54:53.579Z,4.32
2023-05-22T18:57:20.067Z,4.50
2023-05-22T18:59:47.069Z,4.40
2023-05-22T19:02:16.372Z,3.60
2023-05-22T19:04:43.558Z,3.88
2023-05-22T19:07:10.350Z,3.95
2023-05-22T19:09:37.187Z,4.20
2023-05-22T19:12:03.780Z,3.70
2023-05-22T19:14:30.260Z,3.47
2023-05-22T19:16:59.342Z,3.75
2023-05-22T19:19:26.775Z,3.63
2023-05-22T19:21:53.994Z,3.60
2023-05-22T19:24:20.789Z,3.58
2023-05-22T19:26:47.257Z,3.80
2023-05-22T19:29:13.729Z,3.63
2023-05-22T19:31:40.232Z,3.60
2023-05-22T19:34:06.740Z,3.72
2023-05-22T19:36:34.868Z,3.95
2023-05-22T19:39:01.404Z,4.00
2023-05-22T19:41:28.057Z,3.85
2023-05-22T19:43:54.533Z,3.72
2023-05-22T19:46:21.233Z,4.63
2023-05-22T19:48:47.852Z,3.70
2023-05-22T19:51:14.384Z,4.35
2023-05-22T19:53:41.481Z,4.53
2023-05-22T19:56:08.003Z,4.38
2023-05-22T19:58:34.455Z,4.57
2023-05-22T20:01:01.143Z,4.40
2023-05-22T20:03:27.720Z,4.40
2023-05-22T20:05:54.349Z,4.57
2023-05-22T20:08:25.404Z,4.55
2023-05-22T20:10:52.132Z,4.80
2023-05-22T20:13:18.679Z,4.90
2023-05-22T20:15:47.501Z,4.90
2023-05-22T20:18:14.549Z,4.93
2023-05-22T20:20:41.150Z,4.82
2023-05-22T20:23:07.726Z,4.72
2023-05-22T20:25:34.192Z,4.35
2023-05-22T20:28:00.701Z,4.60
2023-05-22T20:30:27.256Z,4.82
2023-05-22T20:32:53.732Z,5.15
2023-05-22T20:35:22.111Z,4.90
2023-05-22T20:37:48.726Z,4.80
2023-05-22T20:40:16.040Z,4.82
2023-05-22T20:42:42.821Z,4.90
2023-05-22T20:45:12.232Z,5.10
2023-05-22T20:47:41.013Z,4.50
2023-05-22T20:50:08.976Z,4.28
2023-05-22T20:52:37.305Z,4.55
2023-05-22T20:55:04.676Z,4.72
2023-05-22T20:57:31.414Z,4.80
2023-05-22T20:59:58.463Z,4.80
2023-05-22T21:02:25.818Z,5.00
2023-05-22T21:04:52.569Z,5.22
2023-05-22T21:07:19.664Z,4.95
2023-05-22T21:09:46.182Z,4.97
2023-05-22T21:12:12.810Z,4.60
2023-05-22T21:14:40.229Z,5.00
2023-05-22T21:17:09.723Z,4.90
2023-05-22T21:19:36.282Z,4.47
2023-05-22T21:22:02.863Z,4.60
2023-05-22T21:24:31.196Z,4.47
2023-05-22T21:26:57.670Z,4.90
2023-05-22T21:29:24.318Z,4.53
2023-05-22T21:31:50.941Z,4.80
2023-05-22T21:34:17.542Z,4.55
2023-05-22T21:36:44.002Z,4.40
2023-05-22T21:39:10.771Z,4.28
2023-05-22T21:41:37.210Z,4.80
2023-05-22T21:44:03.653Z,4.72
2023-05-22T21:46:30.205Z,4.38
2023-05-22T21:48:56.649Z,4.07
2023-05-22T21:51:23.145Z,4.05
2023-05-22T21:53:49.586Z,4.22
2023-05-22T21:56:16.131Z,4.20
2023-05-22T21:58:42.584Z,3.90
2023-05-22T22:01:10.112Z,4.60
2023-05-22T22:03:38.753Z,4.20
2023-05-22T22:06:05.731Z,3.97
2023-05-22T22:08:32.201Z,3.90
2023-05-22T22:10:59.230Z,4.10
2023-05-22T22:13:25.668Z,4.32
2023-05-22T22:15:53.450Z,4.03
2023-05-22T22:18:20.537Z,4.00
2023-05-22T22:20:50.179Z,4.50
2023-05-22T22:23:16.940Z,4.40
2023-05-22T22:25:43.464Z,4.45
2023-05-22T22:28:09.966Z,4.05
2023-05-22T22:30:36.489Z,4.72
2023-05-22T22:33:03.200Z,4.53
2023-05-22T22:35:29.805Z,4.68
2023-05-22T22:37:56.654Z,4.00
2023-05-22T22:40:23.850Z,4.40
2023-05-22T22:42:51.825Z,4.20
2023-05-22T22:45:18.368Z,4.80
2023-05-22T22:47:45.913Z,4.07
2023-05-22T22:50:12.634Z,4.28
2023-05-22T22:52:39.247Z,4.35
2023-05-22T22:55:07.167Z,4.70
2023-05-22T22:57:33.861Z,4.45
2023-05-22T23:00:00.643Z,4.40
2023-05-22T23:02:27.162Z,4.18
2023-05-22T23:04:53.672Z,4.35
2023-05-22T23:07:20.283Z,4.57
2023-05-22T23:09:46.707Z,4.65
2023-05-22T23:12:13.141Z,4.07
2023-05-22T23:14:39.613Z,4.65
2023-05-22T23:17:06.250Z,4.20
2023-05-22T23:19:32.826Z,5.25
2023-05-22T23:21:59.357Z,4.35
2023-05-22T23:24:25.814Z,4.85
2023-05-22T23:26:52.935Z,4.35
2023-05-22T23:29:19.428Z,4.90
2023-05-22T23:31:47.510Z,4.20
2023-05-22T23:34:14.137Z,4.55
2023-05-22T23:36:40.777Z,4.88
2023-05-22T23:39:07.333Z,4.60
2023-05-22T23:41:34.004Z,4.70
2023-05-22T23:44:00.626Z,4.40
2023-05-22T23:46:27.286Z,4.72
2023-05-22T23:48:53.801Z,4.55
2023-05-22T23:51:20.289Z,4.72
2023-05-22T23:53:46.839Z,4.53
2023-05-22T23:56:13.323Z,4.55
2023-05-22T23:58:39.939Z,4.80
